Time;durP1;ratioP1;P1;durP2;ratioP2;P2;SDS_P1;SDS_P2;PMS_P1;PMS_P2;Temp;Humidity;BMP_temperature;BMP_pressure;BME280_temperature;BME280_humidity;BME280_pressure;Samples;Min_cycle;Max_cycle;Signal;HPM_P1;HPM_P2
2023/05/30 00:01:45;;;;;;;11.85;4.03;;;10.30;99.90;;;;;;4980109;28;21650;-79
2023/05/30 00:04:11;;;;;;;16.30;4.03;;;10.40;99.90;;;;;;5009526;28;20080;-79
2023/05/30 00:06:37;;;;;;;14.00;4.45;;;10.40;99.90;;;;;;4977640;28;20128;-79
2023/05/30 00:09:03;;;;;;;17.33;4.95;;;10.50;99.90;;;;;;5009731;28;20111;-79
2023/05/30 00:11:29;;;;;;;17.17;5.35;;;10.50;99.90;;;;;;5008890;28;20033;-79
2023/05/30 00:13:58;;;;;;;13.40;4.22;;;10.50;99.90;;;;;;4994010;28;20034;-78
2023/05/30 00:16:24;;;;;;;12.38;4.25;;;10.50;99.90;;;;;;4992179;28;20629;-78
2023/05/30 00:18:52;;;;;;;14.65;4.13;;;10.50;99.90;;;;;;4990246;28;20121;-78
2023/05/30 00:21:18;;;;;;;14.07;3.58;;;10.50;99.90;;;;;;4992314;28;20546;-78
2023/05/30 00:23:45;;;;;;;7.40;3.63;;;10.50;99.90;;;;;;5010358;28;20045;-78
2023/05/30 00:26:12;;;;;;;15.63;4.25;;;10.50;99.90;;;;;;5024612;28;20045;-78
2023/05/30 00:28:38;;;;;;;10.35;3.30;;;10.50;99.90;;;;;;4977653;28;20516;-79
2023/05/30 00:31:05;;;;;;;10.75;3.75;;;10.50;99.90;;;;;;4993256;28;20441;-79
2023/05/30 00:33:31;;;;;;;10.88;4.05;;;10.50;99.90;;;;;;4991309;28;20091;-78
2023/05/30 00:35:57;;;;;;;15.05;3.90;;;10.50;99.90;;;;;;5001064;28;20521;-79
2023/05/30 00:38:23;;;;;;;13.70;4.65;;;10.50;99.90;;;;;;5010643;28;20034;-79
2023/05/30 00:40:48;;;;;;;10.63;3.65;;;10.50;99.90;;;;;;4974403;28;20037;-79
2023/05/30 00:43:21;;;;;;;15.48;4.53;;;10.50;99.90;;;;;;4994927;28;20039;-79
2023/05/30 00:45:52;;;;;;;12.75;4.15;;;10.50;99.90;;;;;;4994808;28;20044;-79
2023/05/30 00:48:18;;;;;;;10.65;4.43;;;10.50;99.90;;;;;;5010440;28;20037;-79
2023/05/30 00:50:44;;;;;;;11.15;4.00;;;10.50;99.90;;;;;;4992705;28;20394;-79
2023/05/30 00:53:10;;;;;;;15.88;4.47;;;10.40;99.90;;;;;;4999162;28;20042;-79
2023/05/30 00:55:37;;;;;;;10.25;4.47;;;10.50;99.90;;;;;;4992335;28;20486;-79
2023/05/30 00:58:02;;;;;;;16.52;4.57;;;10.40;99.90;;;;;;4992053;28;20041;-79
2023/05/30 01:00:29;;;;;;;12.30;4.40;;;10.50;99.90;;;;;;4994278;28;20042;-78
2023/05/30 01:03:00;;;;;;;11.05;4.85;;;10.50;99.90;;;;;;4977857;28;20052;-79
2023/05/30 01:05:29;;;;;;;17.27;5.35;;;10.50;99.90;;;;;;5009179;28;20072;-79
2023/05/30 01:07:54;;;;;;;14.18;4.07;;;10.50;99.90;;;;;;5008262;28;20048;-79
2023/05/30 01:10:21;;;;;;;11.05;4.57;;;10.50;99.90;;;;;;5006151;28;20057;-79
2023/05/30 01:13:05;;;;;;;8.38;4.50;;;10.50;99.90;;;;;;4994050;28;20054;-79
2023/05/30 01:15:53;;;;;;;12.30;4.32;;;10.50;99.90;;;;;;5023345;28;20041;-79
2023/05/30 01:18:22;;;;;;;10.07;4.20;;;10.50;99.90;;;;;;5024523;28;20065;-79
2023/05/30 01:20:50;;;;;;;13.10;4.70;;;10.50;99.90;;;;;;5010213;28;20033;-79
2023/05/30 01:23:36;;;;;;;12.88;5.63;;;10.50;99.90;;;;;;5009247;28;20038;-79
2023/05/30 01:26:26;;;;;;;14.27;3.88;;;10.40;99.90;;;;;;5008190;28;20118;-79
2023/05/30 01:28:55;;;;;;;12.25;4.47;;;10.50;99.90;;;;;;4993899;28;20079;-79
2023/05/30 01:31:23;;;;;;;14.85;4.55;;;10.50;99.90;;;;;;4993499;28;20037;-79
2023/05/30 01:33:50;;;;;;;13.98;4.50;;;10.50;99.90;;;;;;4993950;28;20029;-79
2023/05/30 01:36:16;;;;;;;14.48;4.15;;;10.40;99.90;;;;;;5008125;28;20037;-79
2023/05/30 01:38:42;;;;;;;13.68;4.88;;;10.50;99.90;;;;;;4993884;28;20053;-79
2023/05/30 01:41:29;;;;;;;12.48;4.35;;;10.50;99.90;;;;;;4991598;28;20506;-79
2023/05/30 01:44:13;;;;;;;11.52;4.32;;;10.50;99.90;;;;;;5009405;28;20121;-79
2023/05/30 01:46:45;;;;;;;16.10;4.90;;;10.50;99.90;;;;;;5009280;28;20045;-79
2023/05/30 01:49:36;;;;;;;12.45;4.47;;;10.50;99.90;;;;;;5008263;28;20116;-79
2023/05/30 01:52:08;;;;;;;10.05;4.55;;;10.40;99.90;;;;;;4992133;28;20136;-79
2023/05/30 01:54:35;;;;;;;;;;;10.40;99.90;;;;;;5008731;28;20390;-79
2023/05/30 01:57:06;;;;;;;11.57;4.80;;;10.40;99.90;;;;;;5008767;28;19949;-79
2023/05/30 01:59:33;;;;;;;13.05;4.80;;;10.40;99.90;;;;;;5009088;28;20120;-79
2023/05/30 02:02:01;;;;;;;8.43;4.28;;;10.40;99.90;;;;;;4993114;28;20045;-79
2023/05/30 02:04:27;;;;;;;11.77;4.75;;;10.40;99.90;;;;;;5008314;28;20077;-79
2023/05/30 02:06:53;;;;;;;15.48;4.75;;;10.40;99.90;;;;;;4978323;28;20459;-79
2023/05/30 02:09:18;;;;;;;13.57;4.82;;;10.40;99.90;;;;;;5024739;28;20045;-79
2023/05/30 02:11:44;;;;;;;14.55;4.22;;;10.40;99.90;;;;;;5005714;28;20045;-79
2023/05/30 02:14:10;;;;;;;11.23;5.03;;;10.40;99.90;;;;;;4992667;28;20514;-79
2023/05/30 02:16:36;;;;;;;10.18;4.35;;;10.40;99.90;;;;;;5009304;28;20033;-79
2023/05/30 02:19:02;;;;;;;12.25;5.05;;;10.30;99.90;;;;;;4992648;28;20067;-79
2023/05/30 02:21:28;;;;;;;10.77;4.82;;;10.30;99.90;;;;;;5008040;28;20757;-79
2023/05/30 02:23:54;;;;;;;11.43;4.45;;;10.30;99.90;;;;;;4993239;28;20057;-79
2023/05/30 02:26:20;;;;;;;13.48;4.40;;;10.30;99.90;;;;;;5008849;28;20041;-79
2023/05/30 02:28:46;;;;;;;9.23;4.20;;;10.20;99.90;;;;;;5009268;28;20391;-79
2023/05/30 02:31:12;;;;;;;8.55;4.60;;;10.30;99.90;;;;;;4992133;28;20095;-79
2023/05/30 02:33:37;;;;;;;8.07;4.43;;;10.20;99.90;;;;;;5006967;28;20044;-79
2023/05/30 02:36:03;;;;;;;7.20;4.15;;;10.30;99.90;;;;;;4992270;28;20406;-79
2023/05/30 02:38:29;;;;;;;16.80;4.50;;;10.30;99.90;;;;;;5006504;28;20033;-79
2023/05/30 02:40:55;;;;;;;10.20;4.90;;;10.30;99.90;;;;;;4991279;28;20064;-79
2023/05/30 02:43:20;;;;;;;9.10;4.35;;;10.30;99.90;;;;;;4992497;28;20037;-79
2023/05/30 02:45:46;;;;;;;8.20;4.10;;;10.30;99.90;;;;;;4994101;28;20033;-79
2023/05/30 02:48:12;;;;;;;12.77;4.40;;;10.30;99.90;;;;;;4991395;28;20029;-79
2023/05/30 02:50:37;;;;;;;10.20;4.45;;;10.30;99.90;;;;;;4992911;28;20071;-79
2023/05/30 02:53:04;;;;;;;10.45;4.70;;;10.30;99.90;;;;;;5023112;28;20045;-79
2023/05/30 02:55:30;;;;;;;10.98;5.95;;;10.30;99.90;;;;;;4960706;28;20037;-80
2023/05/30 02:57:56;;;;;;;16.45;5.32;;;10.30;99.90;;;;;;4992939;28;20170;-79
2023/05/30 03:00:22;;;;;;;10.75;4.60;;;10.30;99.90;;;;;;5008581;28;20160;-79
2023/05/30 03:02:47;;;;;;;15.27;4.53;;;10.30;99.90;;;;;;4993342;28;20128;-79
2023/05/30 03:05:13;;;;;;;9.13;3.95;;;10.30;99.90;;;;;;4973658;28;20042;-80
2023/05/30 03:07:39;;;;;;;13.77;4.50;;;10.30;99.90;;;;;;4975171;28;20128;-80
2023/05/30 03:10:05;;;;;;;13.60;4.03;;;10.30;99.90;;;;;;5007930;28;20049;-79
2023/05/30 03:12:31;;;;;;;9.35;4.50;;;10.30;99.90;;;;;;4974601;28;20049;-80
2023/05/30 03:14:57;;;;;;;11.57;4.82;;;10.30;99.90;;;;;;4993850;28;20115;-79
2023/05/30 03:17:22;;;;;;;9.32;3.42;;;10.30;99.90;;;;;;4995967;28;20083;-79
2023/05/30 03:19:48;;;;;;;13.48;3.90;;;10.30;99.90;;;;;;4995506;28;20045;-79
2023/05/30 03:22:14;;;;;;;8.35;3.58;;;10.30;99.90;;;;;;4994119;28;20164;-79
2023/05/30 03:24:40;;;;;;;11.30;4.38;;;10.30;99.90;;;;;;4979147;28;20871;-79
2023/05/30 03:27:07;;;;;;;9.07;4.03;;;10.30;99.90;;;;;;4980800;28;20048;-80
2023/05/30 03:29:33;;;;;;;10.98;4.22;;;10.30;99.90;;;;;;5012053;28;20394;-79
2023/05/30 03:31:59;;;;;;;10.57;3.95;;;10.30;99.90;;;;;;4995268;28;20044;-79
2023/05/30 03:34:25;;;;;;;10.70;3.83;;;10.30;99.90;;;;;;5011365;28;20037;-79
2023/05/30 03:36:52;;;;;;;7.32;3.88;;;10.30;99.90;;;;;;5004614;28;20067;-79
2023/05/30 03:39:21;;;;;;;11.05;3.78;;;10.30;99.90;;;;;;5016832;28;20033;-79
2023/05/30 03:41:47;;;;;;;16.00;4.97;;;10.30;99.90;;;;;;5010777;28;20457;-79
2023/05/30 03:44:14;;;;;;;15.23;4.65;;;10.30;99.90;;;;;;4978453;28;20038;-79
2023/05/30 03:46:40;;;;;;;16.48;4.78;;;10.30;99.90;;;;;;4994780;28;20045;-79
2023/05/30 03:49:05;;;;;;;11.75;4.60;;;10.30;99.90;;;;;;4992912;28;20071;-79
2023/05/30 03:51:33;;;;;;;13.27;4.40;;;10.30;99.90;;;;;;4979603;28;20048;-79
2023/05/30 03:53:58;;;;;;;9.20;4.25;;;10.30;99.90;;;;;;5009947;28;20099;-79
2023/05/30 03:56:25;;;;;;;13.60;4.43;;;10.30;99.90;;;;;;4995421;28;20038;-80
2023/05/30 03:58:52;;;;;;;16.08;4.20;;;10.30;99.90;;;;;;4994738;28;20037;-79
2023/05/30 04:01:18;;;;;;;15.48;4.63;;;10.30;99.90;;;;;;4995252;28;20655;-79
2023/05/30 04:03:44;;;;;;;7.10;4.30;;;10.30;99.90;;;;;;4994251;28;20065;-79
2023/05/30 04:06:10;;;;;;;12.27;4.18;;;10.30;99.90;;;;;;5000934;28;20096;-79
2023/05/30 04:08:36;;;;;;;12.25;3.97;;;10.40;99.90;;;;;;5009933;28;20034;-79
2023/05/30 04:11:03;;;;;;;8.07;4.53;;;10.40;99.90;;;;;;5010706;28;20502;-79
2023/05/30 04:13:29;;;;;;;13.43;4.43;;;10.40;99.90;;;;;;4977466;28;20682;-79
2023/05/30 04:15:55;;;;;;;15.48;4.60;;;10.40;99.90;;;;;;4988804;28;20034;-79
2023/05/30 04:18:20;;;;;;;15.07;4.80;;;10.40;99.90;;;;;;5010019;28;20049;-79
2023/05/30 04:20:46;;;;;;;14.95;4.57;;;10.50;99.90;;;;;;5011463;28;20433;-79
2023/05/30 04:23:12;;;;;;;15.18;4.38;;;10.50;99.90;;;;;;4976731;28;20067;-80
2023/05/30 04:25:38;;;;;;;16.15;4.80;;;10.50;99.90;;;;;;4994257;28;20072;-80
2023/05/30 04:28:05;;;;;;;8.93;4.07;;;10.60;99.90;;;;;;4994235;28;20084;-78
2023/05/30 04:30:33;;;;;;;9.07;3.95;;;10.60;99.90;;;;;;4994372;28;20103;-78
2023/05/30 04:32:59;;;;;;;14.55;3.90;;;10.70;99.90;;;;;;4993140;28;20959;-79
2023/05/30 04:35:25;;;;;;;17.23;4.45;;;10.70;99.90;;;;;;4977421;28;20116;-79
2023/05/30 04:37:53;;;;;;;21.38;5.05;;;10.70;99.90;;;;;;4992175;28;20095;-79
2023/05/30 04:40:19;;;;;;;13.50;3.90;;;10.80;99.90;;;;;;5010057;28;20116;-79
2023/05/30 04:42:51;;;;;;;12.73;4.60;;;10.80;99.90;;;;;;5009567;28;20049;-79
2023/05/30 04:45:18;;;;;;;14.25;4.20;;;10.90;99.90;;;;;;4979592;28;20128;-79
2023/05/30 04:47:45;;;;;;;16.33;5.03;;;10.90;99.90;;;;;;5009910;28;20045;-79
2023/05/30 04:50:15;;;;;;;14.60;3.90;;;10.90;99.90;;;;;;4994739;28;20045;-79
2023/05/30 04:52:45;;;;;;;12.32;5.03;;;11.00;99.90;;;;;;5006928;28;20395;-79
2023/05/30 04:55:12;;;;;;;13.07;4.57;;;11.00;99.90;;;;;;5008627;28;20034;-79
2023/05/30 04:57:41;;;;;;;8.52;3.67;;;11.00;99.90;;;;;;5009722;28;20333;-79
2023/05/30 05:00:13;;;;;;;9.02;3.85;;;11.10;99.90;;;;;;5008506;28;20044;-79
2023/05/30 05:02:40;;;;;;;10.13;4.05;;;11.10;99.90;;;;;;4994725;28;20128;-79
2023/05/30 05:05:06;;;;;;;9.82;3.90;;;11.10;99.90;;;;;;4990423;28;20120;-80
2023/05/30 05:07:32;;;;;;;9.35;3.97;;;11.20;99.90;;;;;;5021913;28;20029;-79
2023/05/30 05:09:58;;;;;;;9.35;3.70;;;11.20;99.90;;;;;;4991455;28;20051;-79
2023/05/30 05:12:23;;;;;;;12.82;3.45;;;11.20;99.90;;;;;;5009582;28;20041;-79
2023/05/30 05:14:50;;;;;;;11.25;4.55;;;11.30;99.90;;;;;;5009827;28;20037;-80
2023/05/30 05:17:16;;;;;;;14.30;4.00;;;11.30;99.90;;;;;;4976010;28;20554;-79
2023/05/30 05:19:42;;;;;;;11.80;4.40;;;11.30;99.90;;;;;;5009098;28;20117;-79
2023/05/30 05:22:08;;;;;;;10.23;4.05;;;11.30;99.90;;;;;;5009190;28;20041;-79
2023/05/30 05:24:33;;;;;;;12.30;3.88;;;11.40;99.90;;;;;;4992184;28;20033;-79
2023/05/30 05:26:59;;;;;;;9.40;3.92;;;11.40;99.90;;;;;;5011806;28;20041;-79
2023/05/30 05:29:25;;;;;;;13.10;4.28;;;11.40;99.90;;;;;;4977233;28;20041;-79
2023/05/30 05:31:51;;;;;;;16.30;4.57;;;11.40;99.90;;;;;;4979785;28;20525;-79
2023/05/30 05:34:17;;;;;;;10.90;4.15;;;11.50;99.90;;;;;;5013225;28;20450;-80
2023/05/30 05:36:43;;;;;;;10.32;4.00;;;11.50;99.90;;;;;;4996013;28;20041;-80
2023/05/30 05:39:09;;;;;;;14.10;3.80;;;11.60;99.90;;;;;;5001026;28;20079;-80
2023/05/30 05:41:35;;;;;;;8.82;3.95;;;11.60;99.90;;;;;;4992932;28;20037;-79
2023/05/30 05:44:01;;;;;;;14.85;4.15;;;11.60;99.90;;;;;;5010392;28;20045;-80
2023/05/30 05:46:27;;;;;;;12.00;4.07;;;11.70;99.90;;;;;;4989828;28;20497;-80
2023/05/30 05:48:54;;;;;;;11.95;3.70;;;11.70;99.90;;;;;;4996538;28;20045;-79
2023/05/30 05:51:21;;;;;;;12.52;4.05;;;11.80;99.90;;;;;;4991191;28;20069;-80
2023/05/30 05:53:46;;;;;;;12.52;3.97;;;11.90;99.90;;;;;;5012752;28;20048;-79
2023/05/30 05:56:12;;;;;;;18.80;3.95;;;11.90;99.90;;;;;;4996086;28;20045;-79
2023/05/30 05:58:38;;;;;;;20.52;4.47;;;12.00;99.90;;;;;;4980631;28;20041;-81
2023/05/30 06:01:04;;;;;;;21.58;4.20;;;12.00;99.90;;;;;;5008743;28;20032;-80
2023/05/30 06:03:30;;;;;;;16.42;3.85;;;12.10;99.90;;;;;;4984200;28;20025;-81
2023/05/30 06:05:56;;;;;;;9.23;3.88;;;12.10;99.90;;;;;;4998216;28;20487;-80
2023/05/30 06:08:22;;;;;;;16.95;4.80;;;12.10;99.90;;;;;;4995433;28;20064;-84
2023/05/30 06:10:48;;;;;;;8.95;3.20;;;12.00;99.90;;;;;;4992739;28;20527;-83
2023/05/30 06:13:15;;;;;;;15.02;3.38;;;12.00;99.90;;;;;;4997118;28;20180;-81
2023/05/30 06:15:40;;;;;;;13.75;3.55;;;12.00;99.90;;;;;;5007276;28;20049;-81
2023/05/30 06:18:06;;;;;;;8.70;3.05;;;12.00;99.90;;;;;;5013510;28;20040;-80
2023/05/30 06:20:32;;;;;;;14.05;3.67;;;12.00;99.90;;;;;;5000556;28;20402;-81
2023/05/30 06:22:57;;;;;;;14.75;3.28;;;12.10;99.90;;;;;;4962323;28;20169;-83
2023/05/30 06:25:25;;;;;;;10.98;4.38;;;12.10;99.90;;;;;;4976264;28;20061;-82
2023/05/30 06:27:52;;;;;;;17.98;4.45;;;12.10;99.90;;;;;;4975493;28;20038;-82
2023/05/30 06:30:18;;;;;;;27.23;4.00;;;12.10;99.90;;;;;;4983087;28;20046;-82
2023/05/30 06:32:43;;;;;;;23.58;3.60;;;12.10;99.90;;;;;;4970698;28;20467;-82
2023/05/30 06:35:09;;;;;;;11.98;3.72;;;12.20;99.90;;;;;;5005398;28;20041;-82
2023/05/30 06:37:35;;;;;;;12.88;4.25;;;12.10;99.90;;;;;;5002753;28;20191;-82
2023/05/30 06:40:01;;;;;;;8.80;3.15;;;12.10;99.90;;;;;;5016935;28;20042;-82
2023/05/30 06:42:27;;;;;;;8.82;3.08;;;12.20;99.90;;;;;;4967411;28;20039;-81
2023/05/30 06:44:52;;;;;;;9.07;3.65;;;12.10;99.90;;;;;;4988206;28;20047;-82
2023/05/30 06:47:18;;;;;;;16.92;3.72;;;12.10;99.90;;;;;;5004114;28;20053;-82
2023/05/30 06:49:44;;;;;;;10.27;3.35;;;12.10;99.90;;;;;;4973241;28;20495;-82
2023/05/30 06:52:09;;;;;;;6.97;2.60;;;12.10;99.90;;;;;;4971529;28;20038;-82
2023/05/30 06:54:35;;;;;;;8.32;2.67;;;12.10;99.90;;;;;;4973223;28;20673;-82
2023/05/30 06:57:04;;;;;;;11.02;3.33;;;12.20;99.90;;;;;;5009224;28;20478;-82
2023/05/30 06:59:30;;;;;;;20.50;3.33;;;12.20;99.90;;;;;;4968941;28;20550;-82
2023/05/30 07:01:56;;;;;;;9.05;3.13;;;12.20;99.90;;;;;;4973186;28;20137;-82
2023/05/30 07:04:23;;;;;;;11.13;3.75;;;12.20;99.90;;;;;;4956701;28;20500;-82
2023/05/30 07:06:49;;;;;;;20.90;4.07;;;12.20;99.90;;;;;;4958067;28;20054;-82
2023/05/30 07:09:15;;;;;;;14.68;3.78;;;12.20;99.90;;;;;;4990502;28;20070;-82
2023/05/30 07:11:41;;;;;;;14.88;3.45;;;12.20;99.90;;;;;;4994800;28;20131;-82
2023/05/30 07:14:06;;;;;;;7.15;3.42;;;12.20;99.90;;;;;;5008215;28;20030;-82
2023/05/30 07:16:32;;;;;;;11.00;3.10;;;12.20;99.90;;;;;;4983635;28;20046;-82
2023/05/30 07:18:58;;;;;;;10.05;3.10;;;12.20;99.90;;;;;;4985500;28;20038;-83
2023/05/30 07:21:26;;;;;;;8.35;3.33;;;12.20;99.90;;;;;;4972336;28;20038;-82
2023/05/30 07:23:52;;;;;;;8.32;3.80;;;12.20;99.90;;;;;;4972855;28;20111;-81
2023/05/30 07:26:18;;;;;;;12.18;3.78;;;12.10;99.90;;;;;;4970188;28;20479;-79
2023/05/30 07:28:43;;;;;;;12.23;3.83;;;12.10;99.90;;;;;;4998510;28;20043;-81
2023/05/30 07:31:09;;;;;;;7.75;3.58;;;12.10;99.90;;;;;;4987796;28;20104;-80
2023/05/30 07:33:35;;;;;;;8.40;3.67;;;12.10;99.90;;;;;;4991597;28;20053;-82
2023/05/30 07:36:00;;;;;;;12.23;3.85;;;12.10;99.90;;;;;;5017274;28;20042;-82
2023/05/30 07:38:26;;;;;;;11.13;3.97;;;12.10;99.90;;;;;;5003971;28;20040;-83
2023/05/30 07:40:52;;;;;;;6.50;2.72;;;12.10;99.90;;;;;;5007273;28;20426;-83
2023/05/30 07:43:18;;;;;;;6.60;3.20;;;12.20;99.90;;;;;;5023346;28;20499;-83
2023/05/30 07:45:44;;;;;;;12.50;3.70;;;12.20;99.90;;;;;;4995949;28;20045;-83
2023/05/30 07:48:10;;;;;;;7.03;3.33;;;12.30;99.90;;;;;;5023210;28;20583;-81
2023/05/30 07:50:35;;;;;;;4.35;3.03;;;12.30;99.90;;;;;;5014914;28;20033;-82
2023/05/30 07:53:01;;;;;;;9.90;3.92;;;12.30;99.90;;;;;;5014450;28;20045;-82
2023/05/30 07:55:27;;;;;;;6.43;3.67;;;12.30;99.90;;;;;;5007286;28;20034;-82
2023/05/30 07:57:53;;;;;;;9.38;3.47;;;12.30;99.90;;;;;;5008412;28;20133;-81
2023/05/30 08:00:19;;;;;;;7.07;3.63;;;12.30;99.90;;;;;;4975358;28;20038;-81
2023/05/30 08:02:44;;;;;;;20.52;5.03;;;12.40;99.90;;;;;;5021528;28;20506;-81
2023/05/30 08:05:10;;;;;;;9.88;4.25;;;12.40;99.90;;;;;;5001070;28;20411;-82
2023/05/30 08:07:36;;;;;;;14.38;3.97;;;12.40;99.90;;;;;;4998779;28;20037;-81
2023/05/30 08:10:02;;;;;;;9.75;3.70;;;12.40;99.90;;;;;;5001073;28;20581;-82
2023/05/30 08:12:30;;;;;;;14.50;4.85;;;12.40;99.90;;;;;;5014855;28;20049;-82
2023/05/30 08:14:56;;;;;;;13.45;4.10;;;12.30;99.90;;;;;;4989806;28;20045;-82
2023/05/30 08:17:27;;;;;;;12.32;4.13;;;12.30;99.90;;;;;;4991541;28;20682;-81
2023/05/30 08:19:55;;;;;;;10.95;4.93;;;12.20;99.90;;;;;;5028003;28;20093;-81
2023/05/30 08:22:22;;;;;;;9.38;4.00;;;12.30;99.90;;;;;;4999471;28;20050;-81
2023/05/30 08:24:54;;;;;;;10.57;3.95;;;12.30;99.90;;;;;;5014134;28;20098;-81
2023/05/30 08:27:20;;;;;;;;;;;12.40;99.90;;;;;;5007127;28;20278;-82
2023/05/30 08:29:48;;;;;;;10.95;4.82;;;12.30;99.90;;;;;;4992499;28;19921;-81
2023/05/30 08:32:14;;;;;;;5.82;3.53;;;12.30;99.90;;;;;;4988538;28;20104;-83
2023/05/30 08:34:40;;;;;;;13.38;4.53;;;12.30;99.90;;;;;;5002601;28;20168;-76
2023/05/30 08:37:06;;;;;;;13.38;4.20;;;12.40;99.90;;;;;;5020517;28;20064;-83
2023/05/30 08:39:33;;;;;;;8.80;3.47;;;12.40;99.90;;;;;;5005876;28;20072;-83
2023/05/30 08:41:59;;;;;;;10.15;4.13;;;12.30;99.90;;;;;;4991703;28;20108;-83
2023/05/30 08:44:25;;;;;;;8.75;3.20;;;12.30;99.90;;;;;;4997832;28;20048;-84
2023/05/30 08:46:51;;;;;;;10.77;3.97;;;12.40;99.90;;;;;;4999627;28;20046;-84
2023/05/30 08:49:21;;;;;;;9.15;4.30;;;12.40;99.90;;;;;;4989926;28;20578;-83
2023/05/30 08:51:48;;;;;;;9.07;3.63;;;12.40;99.90;;;;;;5011635;28;20034;-83
2023/05/30 08:54:21;;;;;;;8.77;3.47;;;12.40;99.90;;;;;;5006263;28;20045;-83
2023/05/30 08:57:13;;;;;;;14.27;3.75;;;12.50;99.90;;;;;;4999331;28;20111;-81
2023/05/30 08:59:40;;;;;;;14.95;3.88;;;12.70;99.90;;;;;;5012148;28;20071;-83
2023/05/30 09:02:07;;;;;;;9.57;3.92;;;12.70;99.90;;;;;;5007552;28;20491;-81
2023/05/30 09:04:34;;;;;;;7.13;3.28;;;12.70;99.90;;;;;;5013394;28;20041;-80
2023/05/30 09:07:02;;;;;;;7.05;3.20;;;12.70;99.90;;;;;;5008648;28;20045;-80
2023/05/30 09:09:31;;;;;;;6.15;3.05;;;12.70;99.90;;;;;;5015735;28;20108;-81
2023/05/30 09:11:58;;;;;;;6.53;3.28;;;12.80;99.90;;;;;;5014142;28;20065;-80
2023/05/30 09:14:23;;;;;;;5.18;2.80;;;12.80;99.90;;;;;;4997239;28;20037;-81
2023/05/30 09:16:49;;;;;;;6.70;3.15;;;12.90;99.90;;;;;;5013767;28;20041;-81
2023/05/30 09:19:15;;;;;;;20.65;3.67;;;12.80;99.90;;;;;;4996458;28;20084;-81
2023/05/30 09:21:41;;;;;;;9.15;2.92;;;12.70;99.90;;;;;;4982385;28;20045;-81
2023/05/30 09:24:07;;;;;;;7.15;3.20;;;12.70;99.90;;;;;;5033200;28;20052;-83
2023/05/30 09:26:33;;;;;;;7.57;2.83;;;12.70;99.90;;;;;;5001901;28;20045;-83
2023/05/30 09:29:10;;;;;;;4.40;2.80;;;12.70;99.90;;;;;;5025306;28;20045;-82
2023/05/30 09:31:37;;;;;;;6.93;3.42;;;12.70;99.90;;;;;;4990748;28;20038;-83
2023/05/30 09:34:03;;;;;;;21.25;4.32;;;12.70;99.90;;;;;;5022039;28;20034;-83
2023/05/30 09:36:29;;;;;;;11.05;3.75;;;12.70;99.90;;;;;;5017223;28;20037;-83
2023/05/30 09:38:56;;;;;;;6.68;3.00;;;12.80;99.90;;;;;;4971318;28;20096;-83
2023/05/30 09:41:23;;;;;;;7.90;3.35;;;12.90;99.90;;;;;;5025169;28;20066;-82
2023/05/30 09:43:55;;;;;;;6.22;3.08;;;12.90;99.90;;;;;;5018636;28;20065;-82
2023/05/30 09:46:28;;;;;;;5.88;3.00;;;12.90;99.90;;;;;;4992456;28;20116;-83
2023/05/30 09:48:55;;;;;;;11.27;3.20;;;12.90;99.90;;;;;;4978263;28;20137;-84
2023/05/30 09:51:22;;;;;;;5.95;2.60;;;13.00;99.90;;;;;;4997083;28;20053;-83
2023/05/30 09:53:54;;;;;;;4.40;2.75;;;12.90;99.90;;;;;;4990103;28;20041;-83
2023/05/30 09:56:20;;;;;;;6.28;3.65;;;12.80;99.90;;;;;;5008819;28;20093;-83
2023/05/30 09:58:46;;;;;;;9.63;2.97;;;12.80;99.90;;;;;;5012162;28;20076;-83
2023/05/30 10:01:18;;;;;;;5.03;2.88;;;12.80;99.90;;;;;;5001329;28;20038;-83
2023/05/30 10:03:44;;;;;;;21.70;5.43;;;12.80;99.90;;;;;;5011103;28;20069;-83
2023/05/30 10:06:15;;;;;;;25.77;4.45;;;12.90;99.90;;;;;;5011273;28;20079;-83
2023/05/30 10:08:44;;;;;;;12.77;3.20;;;12.80;99.90;;;;;;4994926;28;20044;-84
2023/05/30 10:11:11;;;;;;;31.00;4.10;;;12.90;99.90;;;;;;5013533;28;20100;-89
2023/05/30 10:13:38;;;;;;;31.20;5.30;;;13.00;99.90;;;;;;5013679;28;20045;-87
2023/05/30 10:16:11;;;;;;;25.15;3.97;;;13.10;99.90;;;;;;5013656;28;20049;-86
2023/05/30 10:18:42;;;;;;;6.65;2.45;;;13.20;99.90;;;;;;5014116;28;20072;-87
2023/05/30 10:21:11;;;;;;;5.00;2.40;;;13.20;99.90;;;;;;4996772;28;20030;-81
2023/05/30 10:23:40;;;;;;;13.90;2.80;;;13.30;99.90;;;;;;4996384;28;20033;-80
2023/05/30 10:26:07;;;;;;;3.20;2.10;;;13.50;99.90;;;;;;5013281;28;20479;-80
2023/05/30 10:28:36;;;;;;;6.38;2.13;;;13.50;99.90;;;;;;5016958;28;20042;-80
2023/05/30 10:31:03;;;;;;;15.55;2.70;;;13.50;99.90;;;;;;4995439;28;20118;-81
2023/05/30 10:33:35;;;;;;;12.23;2.58;;;13.60;99.90;;;;;;5011664;28;20037;-81
2023/05/30 10:36:02;;;;;;;6.40;2.53;;;13.60;99.90;;;;;;4996139;28;20120;-81
2023/05/30 10:38:31;;;;;;;15.82;3.13;;;13.60;99.90;;;;;;5011437;28;20104;-81
2023/05/30 10:41:05;;;;;;;2.60;1.60;;;13.60;99.90;;;;;;5028680;28;20045;-80
2023/05/30 10:43:30;;;;;;;2.92;1.80;;;13.60;99.90;;;;;;4996404;28;20490;-80
2023/05/30 10:46:20;;;;;;;2.72;1.70;;;13.60;99.90;;;;;;5011428;28;20049;-80
2023/05/30 10:49:13;;;;;;;3.03;1.73;;;13.60;99.90;;;;;;5008343;28;20038;-80
2023/05/30 10:51:58;;;;;;;2.63;1.90;;;13.60;99.90;;;;;;5009747;28;20077;-80
2023/05/30 10:54:27;;;;;;;2.92;1.98;;;13.60;99.90;;;;;;4979890;28;20073;-80
2023/05/30 10:56:53;;;;;;;2.03;1.70;;;13.60;99.90;;;;;;5012418;28;20037;-80
2023/05/30 10:59:19;;;;;;;3.20;1.60;;;13.60;99.90;;;;;;5012421;28;20042;-80
2023/05/30 11:02:05;;;;;;;1.92;1.55;;;13.70;99.90;;;;;;4994630;28;20100;-80
2023/05/30 11:04:38;;;;;;;3.47;1.70;;;13.70;99.90;;;;;;4995905;28;20051;-81
2023/05/30 11:07:05;;;;;;;3.25;1.50;;;13.70;99.90;;;;;;5012569;28;20037;-80
2023/05/30 11:09:32;;;;;;;1.92;1.70;;;13.80;99.90;;;;;;5028913;28;20069;-80
2023/05/30 11:12:00;;;;;;;2.05;1.67;;;13.90;99.90;;;;;;4985509;28;20620;-80
2023/05/30 11:14:35;;;;;;;2.80;2.08;;;13.90;99.90;;;;;;4991425;28;20030;-81
2023/05/30 11:17:06;;;;;;;2.78;1.80;;;14.00;99.90;;;;;;4972831;28;20033;-80
2023/05/30 11:19:40;;;;;;;24.90;3.20;;;14.10;99.90;;;;;;4990807;28;20041;-80
2023/05/30 11:22:22;;;;;;;5.00;1.95;;;14.10;99.90;;;;;;4961338;28;20108;-80
2023/05/30 11:25:17;;;;;;;11.95;2.97;;;14.00;99.90;;;;;;4977172;28;20578;-80
2023/05/30 11:28:04;;;;;;;5.40;2.20;;;14.10;99.90;;;;;;5002494;28;20729;-81
2023/05/30 11:30:40;;;;;;;5.63;2.35;;;14.20;99.90;;;;;;4995433;28;20190;-80
2023/05/30 11:33:10;;;;;;;7.97;3.40;;;14.20;99.90;;;;;;4973122;28;20384;-79
2023/05/30 11:35:37;;;;;;;4.03;2.05;;;14.30;99.90;;;;;;4965741;28;20053;-79
2023/05/30 11:38:02;;;;;;;10.70;2.53;;;14.30;99.90;;;;;;4975590;28;20049;-79
2023/05/30 11:40:31;;;;;;;6.10;2.40;;;14.20;99.90;;;;;;4945434;28;20038;-78
2023/05/30 11:42:58;;;;;;;3.35;2.13;;;14.20;99.90;;;;;;4963440;28;20038;-78
2023/05/30 11:45:30;;;;;;;2.70;2.00;;;14.20;99.90;;;;;;4978460;28;20483;-78
2023/05/30 11:48:07;;;;;;;3.63;2.20;;;14.20;99.90;;;;;;4972731;28;20590;-78
2023/05/30 11:50:43;;;;;;;25.67;3.20;;;14.30;99.90;;;;;;4975357;28;20048;-78
2023/05/30 11:53:16;;;;;;;21.70;3.15;;;14.40;99.90;;;;;;4942374;28;20149;-79
2023/05/30 11:55:46;;;;;;;95.65;7.15;;;14.40;99.90;;;;;;4970618;28;20034;-79
2023/05/30 11:58:14;;;;;;;3.38;1.80;;;14.50;99.90;;;;;;4994627;28;20041;-79
2023/05/30 12:00:43;;;;;;;2.85;1.70;;;14.50;99.90;;;;;;4977468;28;20050;-79
2023/05/30 12:03:16;;;;;;;16.33;2.47;;;14.50;99.90;;;;;;4961652;28;20118;-79
2023/05/30 12:05:47;;;;;;;3.50;2.63;;;14.50;99.90;;;;;;4963226;28;21035;-79
2023/05/30 12:08:14;;;;;;;6.57;2.33;;;14.40;99.90;;;;;;4973427;28;20045;-79
2023/05/30 12:10:39;;;;;;;3.88;2.50;;;14.30;99.90;;;;;;4989550;28;20066;-79
2023/05/30 12:13:07;;;;;;;4.22;2.40;;;14.30;99.90;;;;;;4979576;28;20041;-79
2023/05/30 12:15:35;;;;;;;5.70;2.25;;;14.20;99.90;;;;;;5009329;28;20123;-79
2023/05/30 12:18:02;;;;;;;26.25;3.42;;;14.20;99.90;;;;;;4982606;28;20034;-79
2023/05/30 12:20:27;;;;;;;3.70;2.25;;;14.20;99.90;;;;;;4972838;28;20088;-79
2023/05/30 12:22:53;;;;;;;5.57;2.20;;;14.20;99.90;;;;;;5011211;28;20065;-79
2023/05/30 12:25:26;;;;;;;2.40;2.00;;;14.30;99.90;;;;;;4976005;28;20057;-79
2023/05/30 12:27:54;;;;;;;2.78;2.17;;;14.40;99.90;;;;;;4974168;28;20473;-80
2023/05/30 12:30:20;;;;;;;2.72;2.40;;;14.50;99.90;;;;;;4980171;28;20471;-79
2023/05/30 12:32:46;;;;;;;68.70;6.20;;;14.50;99.90;;;;;;4975564;28;20506;-80
2023/05/30 12:35:13;;;;;;;3.53;1.90;;;14.50;99.90;;;;;;4977493;28;20042;-80
2023/05/30 12:37:39;;;;;;;14.50;3.72;;;14.60;99.90;;;;;;4994548;28;20038;-80
2023/05/30 12:40:06;;;;;;;4.20;2.28;;;14.70;99.90;;;;;;4963453;28;20184;-79
2023/05/30 12:42:33;;;;;;;2.72;2.22;;;14.80;99.90;;;;;;4979291;28;20410;-80
2023/05/30 12:45:06;;;;;;;3.88;2.13;;;14.90;99.90;;;;;;5006224;28;20052;-79